Time;durP1;ratioP1;P1;durP2;ratioP2;P2;SDS_P1;SDS_P2;PMS_P1;PMS_P2;Temp;Humidity;BMP_temperature;BMP_pressure;BME280_temperature;BME280_humidity;BME280_pressure;Samples;Min_cycle;Max_cycle;Signal;HPM_P1;HPM_P2
2021/06/02 00:00:25;;;;;;;4.73;4.40;;;12.60;99.90;;;;;;5050344;28;20181;-54
2021/06/02 00:02:55;;;;;;;5.30;4.40;;;12.50;99.90;;;;;;5051128;28;20489;-46
2021/06/02 00:05:23;;;;;;;4.80;4.40;;;12.50;99.90;;;;;;5050572;28;20236;-49
2021/06/02 00:07:49;;;;;;;4.37;4.00;;;12.50;99.90;;;;;;5050150;28;20440;-50
2021/06/02 00:10:17;;;;;;;5.10;4.70;;;12.50;99.90;;;;;;5051045;28;20412;-51
2021/06/02 00:12:43;;;;;;;5.30;4.90;;;12.40;99.90;;;;;;5045059;28;20903;-48
2021/06/02 00:15:11;;;;;;;6.47;4.20;;;12.40;99.90;;;;;;5050459;28;20439;-48
2021/06/02 00:17:36;;;;;;;6.10;5.30;;;12.40;99.90;;;;;;5053785;28;20240;-49
2021/06/02 00:20:05;;;;;;;5.20;4.70;;;12.40;99.90;;;;;;5050705;28;20898;-47
2021/06/02 00:22:30;;;;;;;5.10;4.53;;;12.30;99.90;;;;;;5049851;28;20272;-49
2021/06/02 00:24:56;;;;;;;4.80;4.40;;;12.40;99.90;;;;;;5050741;28;20857;-47
2021/06/02 00:27:23;;;;;;;4.80;4.40;;;12.30;99.90;;;;;;5050116;28;20535;-52
2021/06/02 00:29:50;;;;;;;4.80;4.40;;;12.30;99.90;;;;;;5050832;28;20174;-50
2021/06/02 00:32:20;;;;;;;5.17;4.67;;;12.20;99.90;;;;;;5049536;28;20440;-47
2021/06/02 00:34:49;;;;;;;5.10;4.70;;;12.20;99.90;;;;;;5050683;28;20790;-45
2021/06/02 00:37:15;;;;;;;6.33;4.60;;;12.10;99.90;;;;;;5048061;28;20446;-47
2021/06/02 00:39:47;;;;;;;4.63;4.23;;;12.10;99.90;;;;;;5050332;28;20507;-45
2021/06/02 00:42:13;;;;;;;5.27;4.77;;;12.10;99.90;;;;;;5036914;28;20419;-46
2021/06/02 00:44:38;;;;;;;5.37;4.90;;;12.00;99.90;;;;;;5050605;28;20432;-46
2021/06/02 00:47:04;;;;;;;5.30;4.90;;;12.00;99.90;;;;;;5049632;28;20497;-49
2021/06/02 00:49:30;;;;;;;4.80;4.40;;;12.00;99.90;;;;;;5050105;28;20178;-45
2021/06/02 00:52:01;;;;;;;5.43;4.93;;;12.00;99.90;;;;;;5049709;28;20906;-47
2021/06/02 00:54:32;;;;;;;4.93;4.53;;;12.00;99.90;;;;;;5050299;28;20229;-48
2021/06/02 00:57:06;;;;;;;5.40;4.90;;;11.90;99.90;;;;;;5049728;28;20455;-51
2021/06/02 00:59:40;;;;;;;5.13;4.73;;;11.90;99.90;;;;;;5049246;28;20431;-48
2021/06/02 01:02:20;;;;;;;5.47;4.90;;;11.90;99.90;;;;;;5048545;28;20788;-48
2021/06/02 01:04:49;;;;;;;5.13;4.70;;;11.90;99.90;;;;;;5047146;28;20464;-49
2021/06/02 01:07:15;;;;;;;5.40;4.90;;;11.80;99.90;;;;;;5048539;28;20575;-49
2021/06/02 01:09:46;;;;;;;5.67;5.07;;;11.80;99.90;;;;;;5047871;28;20438;-47
2021/06/02 01:12:17;;;;;;;5.27;4.80;;;11.80;99.90;;;;;;5048718;28;20428;-48
2021/06/02 01:14:45;;;;;;;5.77;4.60;;;11.80;99.90;;;;;;5045724;28;20443;-49
2021/06/02 01:17:19;;;;;;;5.40;4.80;;;11.80;99.90;;;;;;5058070;28;20424;-48
2021/06/02 01:19:45;;;;;;;6.43;5.83;;;11.70;99.90;;;;;;5046964;28;20436;-44
2021/06/02 01:22:11;;;;;;;5.70;5.20;;;11.70;99.90;;;;;;5046681;28;20445;-51
2021/06/02 01:24:37;;;;;;;5.40;4.90;;;11.80;99.90;;;;;;5049203;28;20421;-45
2021/06/02 01:27:06;;;;;;;6.57;4.63;;;11.80;99.90;;;;;;5051140;28;20460;-49
2021/06/02 01:29:33;;;;;;;5.53;5.03;;;11.70;99.90;;;;;;5051522;28;20424;-49
2021/06/02 01:32:22;;;;;;;5.03;4.63;;;11.70;99.90;;;;;;5052114;28;20428;-49
2021/06/02 01:35:06;;;;;;;5.80;5.30;;;11.70;99.90;;;;;;5042926;28;20820;-49
2021/06/02 01:37:53;;;;;;;5.70;5.20;;;11.70;99.90;;;;;;5052385;28;20991;-48
2021/06/02 01:40:40;;;;;;;6.07;5.47;;;11.60;99.90;;;;;;5039345;28;20441;-48
2021/06/02 01:43:12;;;;;;;5.50;4.87;;;11.60;99.90;;;;;;5041579;28;20445;-47
2021/06/02 01:46:29;;;;;;;5.93;5.33;;;11.60;99.90;;;;;;5044893;28;20472;-51
2021/06/02 01:49:34;;;;;;;5.90;5.40;;;11.60;99.90;;;;;;4948700;29;20432;-49
2021/06/02 01:52:11;;;;;;;6.60;6.00;;;11.60;99.90;;;;;;5044535;28;20439;-50
2021/06/02 01:55:17;;;;;;;6.30;5.70;;;11.70;99.90;;;;;;5062312;28;21385;-52
2021/06/02 01:57:55;;;;;;;6.27;5.77;;;11.70;99.90;;;;;;5051503;28;20957;-47
2021/06/02 02:00:45;;;;;;;5.77;5.17;;;11.60;99.90;;;;;;5051744;28;20416;-47
2021/06/02 02:03:50;;;;;;;6.63;6.00;;;11.60;99.90;;;;;;5050800;28;20454;-47
2021/06/02 02:06:53;;;;;;;6.10;5.50;;;11.60;99.90;;;;;;5051785;28;20546;-50
2021/06/02 02:09:36;;;;;;;7.60;6.27;;;11.50;99.90;;;;;;5051164;28;20432;-49
2021/06/02 02:12:18;;;;;;;6.27;5.67;;;11.50;99.90;;;;;;5051128;28;20503;-48
2021/06/02 02:14:59;;;;;;;6.27;5.67;;;11.50;99.90;;;;;;5051346;28;20423;-48
2021/06/02 02:18:04;;;;;;;6.00;5.50;;;11.50;99.90;;;;;;5050629;28;20412;-51
2021/06/02 02:20:38;;;;;;;6.97;6.27;;;11.50;99.90;;;;;;5050701;28;20934;-50
2021/06/02 02:23:25;;;;;;;6.03;5.43;;;11.50;99.90;;;;;;5048621;28;20428;-48
2021/06/02 02:26:19;;;;;;;6.30;5.37;;;11.40;99.90;;;;;;5051621;28;20566;-47
2021/06/02 02:29:02;;;;;;;6.27;5.67;;;11.40;99.90;;;;;;5050613;28;20515;-47
2021/06/02 02:31:50;;;;;;;5.93;5.30;;;11.40;99.90;;;;;;5051240;28;20477;-51
2021/06/02 02:34:27;;;;;;;6.30;5.70;;;11.30;99.90;;;;;;5050608;28;20973;-48
2021/06/02 02:37:03;;;;;;;6.33;5.73;;;11.20;99.90;;;;;;5051429;28;20420;-49
2021/06/02 02:39:40;;;;;;;6.30;5.70;;;11.30;99.90;;;;;;5047379;28;20438;-47
2021/06/02 02:42:24;;;;;;;6.10;5.50;;;11.20;99.90;;;;;;5049192;28;20429;-47
2021/06/02 02:45:02;;;;;;;6.23;5.70;;;11.20;99.90;;;;;;5044320;28;20432;-50
2021/06/02 02:47:57;;;;;;;7.10;6.13;;;11.20;99.90;;;;;;5044052;28;20942;-51
2021/06/02 02:50:25;;;;;;;5.90;5.40;;;11.10;99.90;;;;;;5050615;28;20890;-49
2021/06/02 02:53:20;;;;;;;7.93;6.33;;;11.10;99.90;;;;;;5050263;28;20487;-45
2021/06/02 02:55:54;;;;;;;6.60;5.87;;;11.10;99.90;;;;;;5050455;28;20466;-47
2021/06/02 02:58:57;;;;;;;6.77;6.17;;;11.10;99.90;;;;;;5038077;28;20426;-48
2021/06/02 03:01:31;;;;;;;6.50;5.90;;;11.10;99.90;;;;;;5046480;28;20514;-47
2021/06/02 03:04:23;;;;;;;6.23;5.60;;;11.10;99.90;;;;;;5042252;28;20439;-51
2021/06/02 03:07:00;;;;;;;6.40;5.80;;;11.10;99.90;;;;;;5046555;28;20570;-46
2021/06/02 03:09:47;;;;;;;5.80;5.30;;;11.10;99.90;;;;;;5050657;28;20412;-47
2021/06/02 03:12:42;;;;;;;6.73;6.13;;;11.10;99.90;;;;;;5049831;28;20476;-47
2021/06/02 03:15:38;;;;;;;7.23;6.63;;;11.10;99.90;;;;;;5044615;28;20428;-45
2021/06/02 03:18:22;;;;;;;6.00;5.50;;;11.10;99.90;;;;;;5059555;28;20926;-52
2021/06/02 03:21:11;;;;;;;6.67;6.00;;;11.10;99.90;;;;;;5049076;28;21005;-47
2021/06/02 03:24:09;;;;;;;8.17;5.93;;;11.10;99.90;;;;;;5050762;28;20499;-45
2021/06/02 03:26:38;;;;;;;6.47;5.87;;;11.10;99.90;;;;;;5049647;28;21053;-47
2021/06/02 03:29:33;;;;;;;6.60;6.00;;;11.10;99.90;;;;;;5049361;28;20425;-47
2021/06/02 03:32:15;;;;;;;8.40;5.90;;;11.10;99.90;;;;;;5050102;28;20423;-50
2021/06/02 03:35:01;;;;;;;7.63;6.83;;;11.20;99.90;;;;;;5049087;28;20563;-47
2021/06/02 03:37:35;;;;;;;6.47;5.87;;;11.20;99.90;;;;;;5038492;28;20943;-48
2021/06/02 03:40:03;;;;;;;7.20;6.53;;;11.20;99.90;;;;;;5048880;28;20428;-49
2021/06/02 03:42:45;;;;;;;6.60;5.90;;;11.20;99.90;;;;;;5050122;28;20424;-49
2021/06/02 03:45:27;;;;;;;6.97;5.97;;;11.30;99.90;;;;;;5048476;28;20431;-49
2021/06/02 03:48:05;;;;;;;6.60;6.00;;;11.30;99.90;;;;;;5049524;28;20443;-48
2021/06/02 03:50:44;;;;;;;6.47;5.87;;;11.30;99.90;;;;;;5049655;28;20917;-48
2021/06/02 03:53:34;;;;;;;6.50;5.97;;;11.30;99.90;;;;;;5049557;28;20464;-50
2021/06/02 03:56:12;;;;;;;6.40;5.83;;;11.30;99.90;;;;;;5046567;28;20452;-50
2021/06/02 03:58:50;;;;;;;6.77;6.07;;;11.40;99.90;;;;;;5049677;28;20435;-46
2021/06/02 04:01:31;;;;;;;6.93;6.33;;;11.40;99.90;;;;;;5048598;28;20842;-48
2021/06/02 04:03:56;;;;;;;6.80;5.77;;;11.40;99.90;;;;;;5049003;28;20770;-48
2021/06/02 04:06:50;;;;;;;7.37;6.43;;;11.50;99.90;;;;;;5048650;28;20460;-50
2021/06/02 04:09:27;;;;;;;6.80;6.20;;;11.60;99.90;;;;;;5040068;28;20182;-48
2021/06/02 04:12:17;;;;;;;6.47;5.87;;;11.60;99.90;;;;;;5048348;28;21218;-50
2021/06/02 04:14:53;;;;;;;7.03;6.40;;;11.70;99.90;;;;;;5040170;28;20432;-48
2021/06/02 04:17:21;;;;;;;7.23;6.53;;;11.80;99.90;;;;;;5039816;28;20420;-48
2021/06/02 04:19:50;;;;;;;6.50;5.90;;;11.90;99.90;;;;;;5039445;28;20845;-47
2021/06/02 04:22:18;;;;;;;6.33;5.80;;;12.00;99.90;;;;;;5040743;28;20444;-45
2021/06/02 04:24:44;;;;;;;6.33;5.73;;;12.10;99.90;;;;;;5039971;28;20461;-49
2021/06/02 04:27:14;;;;;;;6.93;6.23;;;12.10;99.90;;;;;;5039565;28;20471;-51
2021/06/02 04:29:42;;;;;;;6.90;6.30;;;12.10;99.90;;;;;;5040013;28;20464;-49
2021/06/02 04:32:08;;;;;;;7.27;6.57;;;12.20;99.90;;;;;;5038462;28;20428;-50
2021/06/02 04:34:34;;;;;;;6.07;5.47;;;12.30;99.90;;;;;;5039109;28;20440;-50
2021/06/02 04:37:05;;;;;;;6.50;5.87;;;12.40;99.90;;;;;;5039536;28;20836;-51
2021/06/02 04:39:32;;;;;;;6.50;5.70;;;12.50;99.90;;;;;;5042699;28;21092;-46
2021/06/02 04:42:00;;;;;;;6.13;5.63;;;12.60;99.90;;;;;;5048202;28;20507;-46
2021/06/02 04:44:28;;;;;;;6.20;5.60;;;12.70;99.90;;;;;;5044343;28;20443;-49
2021/06/02 04:46:54;;;;;;;5.97;5.37;;;12.80;99.90;;;;;;5027129;28;20457;-50
2021/06/02 04:49:25;;;;;;;5.70;5.20;;;12.90;99.90;;;;;;5028194;28;20402;-48
2021/06/02 04:52:00;;;;;;;6.50;5.90;;;13.10;99.90;;;;;;5030950;28;20429;-45
2021/06/02 04:54:56;;;;;;;6.23;5.63;;;13.30;99.90;;;;;;5036554;28;20469;-48
2021/06/02 04:57:37;;;;;;;5.80;5.30;;;13.40;99.90;;;;;;5039333;28;20780;-49
2021/06/02 05:00:40;;;;;;;7.60;5.93;;;13.60;99.90;;;;;;5048354;28;20512;-44
2021/06/02 05:03:24;;;;;;;7.90;6.47;;;13.60;99.90;;;;;;5048682;28;20522;-48
2021/06/02 05:06:23;;;;;;;6.53;5.93;;;13.80;99.90;;;;;;5052447;28;20460;-48
2021/06/02 05:09:19;;;;;;;6.47;5.87;;;13.90;99.90;;;;;;5041946;28;20516;-46
2021/06/02 05:12:06;;;;;;;6.30;5.80;;;14.00;99.90;;;;;;5051427;28;20962;-48
2021/06/02 05:15:03;;;;;;;6.47;5.43;;;14.20;99.90;;;;;;5052685;28;20418;-51
2021/06/02 05:17:44;;;;;;;6.50;5.77;;;14.30;99.90;;;;;;5051745;28;20441;-46
2021/06/02 05:20:21;;;;;;;6.27;5.73;;;14.50;99.90;;;;;;5050822;28;20431;-50
2021/06/02 05:23:12;;;;;;;6.00;5.50;;;14.60;99.90;;;;;;5044896;28;20981;-48
2021/06/02 05:25:59;;;;;;;6.30;5.80;;;14.70;99.90;;;;;;5052689;28;20424;-47
2021/06/02 05:29:10;;;;;;;6.37;5.87;;;14.80;99.90;;;;;;5052620;28;20430;-52
2021/06/02 05:31:56;;;;;;;6.60;5.90;;;15.00;99.90;;;;;;5046894;28;20832;-49
2021/06/02 05:35:00;;;;;;;7.00;6.40;;;15.20;99.90;;;;;;5052609;28;20454;-47
2021/06/02 05:37:44;;;;;;;7.47;6.00;;;15.30;99.90;;;;;;5052444;28;20455;-52
2021/06/02 05:40:36;;;;;;;6.50;5.57;;;15.50;99.90;;;;;;5051655;28;20862;-50
2021/06/02 05:43:23;;;;;;;7.50;6.80;;;15.70;99.90;;;;;;5052044;28;20412;-47
2021/06/02 05:46:20;;;;;;;6.50;5.77;;;15.90;99.90;;;;;;5043418;28;20582;-45
2021/06/02 05:49:23;;;;;;;6.27;5.70;;;16.20;99.90;;;;;;5049392;28;20425;-45
2021/06/02 05:52:06;;;;;;;6.83;5.73;;;16.40;99.90;;;;;;5050710;28;20519;-47
2021/06/02 05:55:09;;;;;;;6.60;6.00;;;16.60;99.90;;;;;;5053558;28;20465;-49
2021/06/02 05:58:02;;;;;;;6.77;6.17;;;16.80;99.90;;;;;;5050093;28;20801;-48
2021/06/02 06:00:58;;;;;;;6.87;6.27;;;16.90;99.90;;;;;;5051577;28;20469;-48
2021/06/02 06:03:41;;;;;;;7.33;6.73;;;17.00;99.90;;;;;;5051017;28;20455;-48
2021/06/02 06:06:26;;;;;;;6.60;6.00;;;17.10;99.90;;;;;;5040319;28;20559;-46
2021/06/02 06:09:08;;;;;;;7.00;6.40;;;17.20;99.90;;;;;;5050465;28;20435;-47
2021/06/02 06:12:04;;;;;;;6.70;6.10;;;17.30;99.90;;;;;;5050542;28;20496;-48
2021/06/02 06:15:02;;;;;;;7.90;7.20;;;17.30;99.90;;;;;;5051196;28;20427;-46
2021/06/02 06:18:00;;;;;;;6.83;6.23;;;17.40;99.90;;;;;;5049887;28;20459;-45
2021/06/02 06:20:43;;;;;;;7.20;6.50;;;17.50;99.90;;;;;;5049669;28;20843;-48
2021/06/02 06:23:52;;;;;;;7.13;6.50;;;17.50;99.90;;;;;;5050625;28;20423;-52
2021/06/02 06:26:31;;;;;;;7.10;6.50;;;17.60;99.90;;;;;;5051135;28;20823;-51
2021/06/02 06:29:34;;;;;;;8.03;6.30;;;17.70;99.90;;;;;;5050057;28;20510;-52
2021/06/02 06:32:03;;;;;;;7.10;6.60;;;17.70;99.90;;;;;;5050830;28;20435;-51
2021/06/02 06:34:33;;;;;;;7.10;6.60;;;17.60;99.90;;;;;;5051063;28;20416;-49
2021/06/02 06:37:00;;;;;;;7.53;6.93;;;17.50;99.90;;;;;;5050842;28;20440;-47
2021/06/02 06:39:37;;;;;;;7.83;7.23;;;17.60;99.90;;;;;;5050464;28;20427;-51
2021/06/02 06:42:03;;;;;;;7.13;6.53;;;17.70;99.90;;;;;;5050407;28;20435;-49
2021/06/02 06:44:33;;;;;;;7.40;6.80;;;17.80;99.90;;;;;;5050502;28;20419;-50
2021/06/02 06:47:01;;;;;;;8.50;7.23;;;18.00;99.90;;;;;;5050870;28;20477;-48
2021/06/02 06:49:31;;;;;;;7.13;6.53;;;18.30;99.90;;;;;;5054602;28;20432;-54
2021/06/02 06:51:58;;;;;;;7.40;6.80;;;18.40;99.90;;;;;;5051498;28;20434;-45
2021/06/02 06:54:24;;;;;;;7.17;6.50;;;18.50;99.90;;;;;;5056086;28;20479;-45
2021/06/02 06:56:51;;;;;;;7.70;7.20;;;18.70;99.90;;;;;;5049698;28;20440;-50
2021/06/02 06:59:19;;;;;;;7.43;6.80;;;18.90;99.90;;;;;;5050447;28;20440;-49
2021/06/02 07:01:45;;;;;;;7.80;7.10;;;19.00;99.90;;;;;;5037604;28;21289;-50
2021/06/02 07:04:12;;;;;;;8.07;7.47;;;19.30;99.90;;;;;;5047994;28;20422;-52
2021/06/02 07:06:38;;;;;;;7.60;7.00;;;19.40;98.90;;;;;;5039276;28;20471;-47
2021/06/02 07:09:05;;;;;;;7.53;6.93;;;19.70;99.80;;;;;;5043097;28;20434;-49
2021/06/02 07:11:37;;;;;;;8.23;6.80;;;19.90;98.00;;;;;;5047374;28;20764;-49
2021/06/02 07:14:03;;;;;;;7.50;6.80;;;20.00;97.20;;;;;;5049030;28;20751;-55
2021/06/02 07:16:30;;;;;;;7.50;7.00;;;20.20;95.90;;;;;;5049473;28;20435;-51
2021/06/02 07:18:57;;;;;;;7.07;6.57;;;20.30;95.20;;;;;;5049014;28;20447;-51
2021/06/02 07:21:24;;;;;;;7.43;6.80;;;20.50;94.70;;;;;;5049136;28;20451;-50
2021/06/02 07:23:50;;;;;;;8.00;7.30;;;20.70;94.60;;;;;;5047975;28;20424;-51
2021/06/02 07:26:15;;;;;;;7.30;6.60;;;20.90;93.30;;;;;;5049428;28;20486;-51
2021/06/02 07:28:41;;;;;;;7.10;6.70;;;21.10;92.70;;;;;;5048989;28;20519;-48
2021/06/02 07:31:09;;;;;;;7.13;6.57;;;21.10;90.80;;;;;;5047939;28;20209;-50
2021/06/02 07:33:35;;;;;;;6.33;5.83;;;21.20;88.70;;;;;;5048810;28;20416;-52
2021/06/02 07:36:02;;;;;;;6.70;6.20;;;21.30;87.90;;;;;;5048980;28;20420;-51
2021/06/02 07:38:28;;;;;;;7.60;7.00;;;21.30;85.10;;;;;;5048371;28;20519;-49
2021/06/02 07:40:54;;;;;;;7.13;6.53;;;21.50;85.50;;;;;;5048982;28;20523;-47
2021/06/02 07:43:19;;;;;;;7.40;6.80;;;21.50;86.70;;;;;;5048680;28;20511;-50
2021/06/02 07:45:45;;;;;;;8.10;7.30;;;21.70;86.30;;;;;;5048735;28;20499;-49
2021/06/02 07:48:11;;;;;;;7.10;6.60;;;21.60;83.90;;;;;;5048423;28;20268;-52
2021/06/02 07:50:37;;;;;;;7.57;7.00;;;21.80;83.90;;;;;;5048668;28;20917;-50
2021/06/02 07:53:03;;;;;;;8.20;7.60;;;21.60;81.20;;;;;;5044077;28;20240;-52
2021/06/02 07:55:29;;;;;;;7.27;6.77;;;21.60;83.50;;;;;;5048809;28;20451;-46
2021/06/02 07:57:54;;;;;;;7.50;6.90;;;21.70;83.50;;;;;;5042886;28;20186;-50
2021/06/02 08:00:20;;;;;;;7.40;6.90;;;21.80;82.60;;;;;;5049019;28;21046;-46
2021/06/02 08:02:46;;;;;;;7.50;7.00;;;22.00;79.70;;;;;;5048299;28;20205;-53
2021/06/02 08:05:14;;;;;;;7.93;7.33;;;22.00;80.40;;;;;;5048769;28;20966;-52
2021/06/02 08:07:41;;;;;;;8.37;7.27;;;22.00;80.50;;;;;;5047902;28;20214;-48
2021/06/02 08:10:07;;;;;;;7.67;7.17;;;22.20;79.10;;;;;;5048460;28;20420;-52
2021/06/02 08:12:32;;;;;;;7.10;6.60;;;22.30;78.90;;;;;;5048005;28;20428;-49
2021/06/02 08:14:58;;;;;;;7.03;6.33;;;22.30;77.40;;;;;;5048084;28;20174;-51
2021/06/02 08:17:24;;;;;;;7.20;6.67;;;22.40;78.60;;;;;;5048541;28;20181;-52
2021/06/02 08:19:49;;;;;;;7.30;6.80;;;22.60;79.10;;;;;;5048212;28;20578;-52
2021/06/02 08:22:15;;;;;;;6.70;6.20;;;22.70;74.50;;;;;;5047972;28;20193;-52
2021/06/02 08:24:40;;;;;;;7.23;6.63;;;22.80;73.50;;;;;;5048144;28;20190;-53
2021/06/02 08:27:10;;;;;;;7.77;7.17;;;22.90;74.30;;;;;;5048059;28;20208;-50
2021/06/02 08:29:36;;;;;;;7.23;6.63;;;23.00;75.10;;;;;;5048037;28;20178;-48
2021/06/02 08:32:02;;;;;;;6.70;6.20;;;23.10;71.30;;;;;;5048444;28;20503;-51
2021/06/02 08:34:28;;;;;;;6.10;5.70;;;23.20;66.30;;;;;;5046598;28;20204;-48
2021/06/02 08:36:53;;;;;;;6.67;6.20;;;23.30;57.90;;;;;;5047201;28;20259;-47
2021/06/02 08:39:19;;;;;;;6.93;6.33;;;23.50;55.30;;;;;;5046495;28;20185;-52
2021/06/02 08:41:46;;;;;;;6.33;5.93;;;23.50;53.80;;;;;;5039526;28;20198;-52
2021/06/02 08:44:11;;;;;;;5.77;5.37;;;23.40;51.90;;;;;;5048204;28;20182;-48
2021/06/02 08:46:37;;;;;;;5.60;5.30;;;23.50;53.00;;;;;;5047521;28;20525;-49
2021/06/02 08:49:04;;;;;;;6.13;5.83;;;23.60;51.20;;;;;;5047817;28;20178;-51
2021/06/02 08:51:33;;;;;;;6.33;5.93;;;23.90;51.80;;;;;;5042210;28;20186;-51
2021/06/02 08:53:58;;;;;;;6.10;5.70;;;24.10;51.60;;;;;;5037864;28;20951;-48
2021/06/02 08:56:24;;;;;;;6.27;5.67;;;24.30;52.10;;;;;;5047232;28;20523;-50
2021/06/02 08:58:50;;;;;;;6.40;6.00;;;24.40;52.60;;;;;;5047890;28;20189;-50
2021/06/02 09:01:16;;;;;;;6.60;6.10;;;24.60;52.20;;;;;;5047440;28;20471;-49
2021/06/02 09:03:41;;;;;;;6.93;6.33;;;24.60;52.30;;;;;;5049121;28;20224;-48
2021/06/02 09:06:10;;;;;;;6.27;5.87;;;24.90;52.30;;;;;;5049490;28;20263;-48
2021/06/02 09:08:39;;;;;;;6.20;5.90;;;25.20;49.30;;;;;;5044010;28;20188;-50
2021/06/02 09:11:19;;;;;;;6.00;5.60;;;25.30;45.10;;;;;;5049511;28;20422;-51
2021/06/02 09:13:46;;;;;;;5.47;5.03;;;25.40;45.80;;;;;;5048169;28;20428;-54
2021/06/02 09:16:32;;;;;;;5.80;5.40;;;25.80;47.70;;;;;;5049608;28;20465;-51
2021/06/02 09:19:04;;;;;;;6.47;5.87;;;26.30;42.80;;;;;;5048663;28;20447;-48
2021/06/02 09:21:31;;;;;;;6.07;5.57;;;26.60;43.80;;;;;;5047812;28;20795;-49
2021/06/02 09:23:57;;;;;;;6.23;5.63;;;27.10;42.20;;;;;;5049481;28;20546;-51
2021/06/02 09:26:29;;;;;;;5.90;5.50;;;27.40;40.40;;;;;;5049772;28;20513;-50
2021/06/02 09:29:11;;;;;;;6.37;5.97;;;27.70;37.30;;;;;;5049471;28;20412;-49
2021/06/02 09:31:45;;;;;;;6.67;6.13;;;28.40;36.30;;;;;;5048773;28;20461;-49
2021/06/02 09:34:18;;;;;;;5.83;5.53;;;28.80;36.50;;;;;;5049147;28;20423;-48
2021/06/02 09:36:50;;;;;;;5.90;5.50;;;29.40;36.40;;;;;;5048307;28;20436;-48
2021/06/02 09:39:18;;;;;;;6.60;6.20;;;29.80;33.80;;;;;;5048082;28;20435;-51
2021/06/02 09:41:49;;;;;;;6.50;6.10;;;30.20;32.80;;;;;;5048329;28;20436;-47
2021/06/02 09:44:20;;;;;;;6.90;6.30;;;30.60;32.30;;;;;;5049616;28;20417;-48
2021/06/02 09:47:11;;;;;;;6.43;5.83;;;30.90;30.90;;;;;;5050367;28;20488;-52
2021/06/02 09:49:48;;;;;;;6.53;6.23;;;31.10;31.00;;;;;;5056080;28;20431;-50
2021/06/02 09:52:15;;;;;;;5.70;5.40;;;31.20;29.40;;;;;;5051994;28;20439;-50
2021/06/02 09:54:41;;;;;;;5.70;5.30;;;31.00;27.70;;;;;;5052846;28;20468;-50
2021/06/02 09:57:24;;;;;;;6.10;5.70;;;31.20;28.50;;;;;;5052942;28;20420;-46
2021/06/02 09:59:55;;;;;;;5.80;5.40;;;31.00;27.50;;;;;;5052882;28;20185;-51
2021/06/02 10:02:21;;;;;;;6.80;6.20;;;31.20;28.40;;;;;;5050841;28;20436;-48
2021/06/02 10:05:04;;;;;;;6.17;5.80;;;32.00;28.80;;;;;;5049877;28;20522;-51
2021/06/02 10:07:30;;;;;;;6.20;5.80;;;32.60;27.00;;;;;;5051499;28;20248;-50
2021/06/02 10:10:10;;;;;;;7.27;5.60;;;32.20;26.00;;;;;;5051048;28;20464;-50
2021/06/02 10:12:36;;;;;;;6.07;5.77;;;32.20;25.80;;;;;;5050678;28;20957;-48
2021/06/02 10:15:03;;;;;;;6.20;5.73;;;32.20;26.00;;;;;;5038698;28;20426;-50
2021/06/02 10:17:34;;;;;;;5.80;5.40;;;32.70;25.30;;;;;;5031721;28;20249;-52
2021/06/02 10:20:13;;;;;;;5.60;5.20;;;32.50;23.90;;;;;;5044346;28;20482;-50
2021/06/02 10:22:39;;;;;;;5.90;5.40;;;33.10;25.70;;;;;;5049800;28;20470;-52
2021/06/02 10:25:07;;;;;;;5.50;5.20;;;32.60;24.40;;;;;;5050871;28;20423;-49
2021/06/02 10:27:33;;;;;;;5.70;5.20;;;33.20;24.90;;;;;;5049788;28;20501;-50
2021/06/02 10:29:59;;;;;;;6.03;5.53;;;33.40;23.80;;;;;;5050785;28;20988;-51
2021/06/02 10:32:26;;;;;;;5.93;5.63;;;33.90;23.50;;;;;;5049748;28;20170;-52
2021/06/02 10:34:52;;;;;;;6.73;5.57;;;33.50;23.00;;;;;;5050656;28;20400;-50
2021/06/02 10:37:20;;;;;;;5.70;5.40;;;33.60;23.50;;;;;;5050455;28;20416;-51
2021/06/02 10:39:53;;;;;;;5.03;4.80;;;33.90;24.00;;;;;;5050539;28;20907;-49
2021/06/02 10:42:33;;;;;;;6.50;6.10;;;34.40;23.90;;;;;;5048587;28;20424;-49
2021/06/02 10:45:35;;;;;;;6.00;5.60;;;34.60;24.50;;;;;;5049209;28;20431;-46
2021/06/02 10:48:02;;;;;;;6.03;5.70;;;34.50;22.30;;;;;;5028375;28;20447;-50
2021/06/02 10:50:44;;;;;;;6.30;5.70;;;33.70;21.80;;;;;;5050375;28;20415;-48
2021/06/02 10:53:28;;;;;;;6.80;6.40;;;33.80;22.20;;;;;;5049205;28;20556;-51
2021/06/02 10:55:56;;;;;;;6.33;5.93;;;34.00;22.10;;;;;;5047361;28;20460;-52
2021/06/02 10:58:46;;;;;;;6.70;6.30;;;34.50;23.00;;;;;;5049658;28;20875;-48
2021/06/02 11:01:17;;;;;;;6.20;5.90;;;33.50;22.30;;;;;;5035010;28;20444;-47
2021/06/02 11:03:45;;;;;;;6.00;5.60;;;33.80;23.30;;;;;;5039124;28;20957;-51
2021/06/02 11:06:13;;;;;;;6.83;6.50;;;34.40;23.80;;;;;;5047647;28;20467;-48
2021/06/02 11:08:51;;;;;;;6.70;6.20;;;34.90;22.50;;;;;;5039813;28;20587;-51
2021/06/02 11:11:29;;;;;;;6.20;5.80;;;35.50;22.10;;;;;;5035906;28;20430;-54
2021/06/02 11:14:17;;;;;;;6.17;5.80;;;35.70;21.90;;;;;;5056014;28;20423;-46
2021/06/02 11:16:47;;;;;;;6.20;5.90;;;35.10;21.00;;;;;;5046198;28;20459;-50
2021/06/02 11:19:18;;;;;;;6.47;6.17;;;34.90;22.70;;;;;;5049156;28;20408;-50
2021/06/02 11:22:05;;;;;;;7.10;6.70;;;35.10;22.50;;;;;;5038825;28;21132;-51
2021/06/02 11:24:36;;;;;;;6.30;6.00;;;34.60;22.00;;;;;;5037119;28;20420;-49
2021/06/02 11:27:11;;;;;;;6.23;5.83;;;34.70;23.00;;;;;;5029639;28;20420;-51
2021/06/02 11:29:57;;;;;;;6.63;6.13;;;32.90;23.20;;;;;;5031987;28;20434;-53
2021/06/02 11:32:27;;;;;;;6.33;6.03;;;33.00;24.10;;;;;;5021835;28;20476;-50
2021/06/02 11:34:55;;;;;;;7.20;6.80;;;32.60;24.50;;;;;;5031274;28;20413;-53
2021/06/02 11:37:28;;;;;;;6.97;6.63;;;32.20;24.10;;;;;;5029291;28;20522;-51
2021/06/02 11:39:56;;;;;;;6.77;6.37;;;32.10;26.10;;;;;;5034035;28;20420;-50
2021/06/02 11:42:41;;;;;;;6.27;5.73;;;32.50;25.80;;;;;;5035726;28;20425;-47
2021/06/02 11:45:08;;;;;;;6.67;6.27;;;32.70;25.20;;;;;;5030621;28;20401;-50
2021/06/02 11:47:36;;;;;;;7.13;6.70;;;32.50;25.00;;;;;;5032178;28;20437;-48
2021/06/02 11:50:08;;;;;;;7.40;6.90;;;32.90;25.10;;;;;;5028878;28;20429;-50
2021/06/02 11:52:34;;;;;;;6.90;6.60;;;33.70;23.60;;;;;;5033985;28;20432;-51
2021/06/02 11:55:09;;;;;;;7.00;6.33;;;34.10;23.10;;;;;;5037103;28;20441;-50
2021/06/02 11:57:37;;;;;;;6.00;5.50;;;34.10;24.00;;;;;;5043862;28;20562;-49
2021/06/02 12:00:28;;;;;;;6.67;6.27;;;33.70;23.70;;;;;;5048660;28;20468;-48
2021/06/02 12:02:58;;;;;;;6.40;6.10;;;33.90;23.10;;;;;;5047502;28;20423;-49
2021/06/02 12:05:30;;;;;;;6.23;5.93;;;34.30;23.60;;;;;;5048809;28;20429;-51
2021/06/02 12:07:58;;;;;;;6.20;5.90;;;34.60;23.10;;;;;;5048004;28;20466;-52
2021/06/02 12:10:32;;;;;;;6.30;6.00;;;34.90;22.90;;;;;;5047835;28;20404;-48
2021/06/02 12:12:59;;;;;;;6.20;5.90;;;34.70;21.90;;;;;;5048325;28;20768;-48
2021/06/02 12:15:26;;;;;;;6.23;5.83;;;33.60;22.40;;;;;;5047770;28;21147;-47
2021/06/02 12:17:53;;;;;;;6.00;5.60;;;33.40;22.90;;;;;;5048004;28;20467;-50
2021/06/02 12:20:24;;;;;;;6.30;6.00;;;34.00;22.50;;;;;;5047734;28;20428;-50
2021/06/02 12:22:51;;;;;;;6.17;5.87;;;34.00;21.60;;;;;;5041099;28;20481;-51
2021/06/02 12:25:20;;;;;;;5.53;5.33;;;34.10;21.00;;;;;;5047958;28;20480;-50
2021/06/02 12:27:56;;;;;;;6.50;5.90;;;34.40;20.50;;;;;;5048113;28;20415;-47
2021/06/02 12:30:31;;;;;;;6.27;5.97;;;34.00;21.20;;;;;;5047895;28;20416;-49
2021/06/02 12:33:02;;;;;;;6.10;5.50;;;34.30;21.80;;;;;;5047753;28;20407;-49
2021/06/02 12:35:39;;;;;;;5.77;5.47;;;35.20;21.60;;;;;;5048068;28;20439;-52
2021/06/02 12:38:16;;;;;;;5.63;5.43;;;36.10;20.60;;;;;;5048123;28;20450;-51
2021/06/02 12:40:54;;;;;;;6.47;5.97;;;35.10;19.70;;;;;;5041720;28;20435;-51
2021/06/02 12:43:22;;;;;;;5.50;5.20;;;32.70;21.50;;;;;;5042467;28;20427;-49
2021/06/02 12:45:51;;;;;;;6.13;5.83;;;32.20;23.80;;;;;;5048230;28;20452;-54
2021/06/02 12:48:29;;;;;;;6.80;6.43;;;32.20;24.20;;;;;;5047712;28;20416;-53
2021/06/02 12:50:55;;;;;;;5.67;5.37;;;32.50;23.50;;;;;;5047593;28;20427;-53
2021/06/02 12:53:21;;;;;;;5.20;5.00;;;33.50;22.30;;;;;;5048192;28;20464;-50
2021/06/02 12:55:49;;;;;;;5.67;5.37;;;33.80;21.60;;;;;;5048087;28;20284;-46
2021/06/02 12:58:19;;;;;;;5.97;5.67;;;34.20;21.90;;;;;;5047209;28;20573;-53
2021/06/02 13:00:47;;;;;;;6.20;5.90;;;34.90;22.10;;;;;;5047606;28;20983;-49
2021/06/02 13:03:20;;;;;;;5.87;5.57;;;35.30;21.90;;;;;;5047086;28;20431;-53
2021/06/02 13:05:47;;;;;;;5.50;5.20;;;35.40;20.80;;;;;;5028268;28;20417;-51
2021/06/02 13:08:14;;;;;;;6.10;5.80;;;35.60;21.10;;;;;;5037637;28;20470;-53
2021/06/02 13:10:46;;;;;;;5.70;5.40;;;35.50;21.60;;;;;;5048099;28;21004;-52
2021/06/02 13:13:13;;;;;;;5.60;5.30;;;35.20;21.30;;;;;;5046781;28;20424;-45
2021/06/02 13:15:42;;;;;;;5.73;5.47;;;35.60;21.00;;;;;;5048428;28;20397;-50
2021/06/02 13:18:23;;;;;;;5.90;5.60;;;35.80;20.50;;;;;;5047940;28;20435;-54
2021/06/02 13:20:49;;;;;;;5.90;5.50;;;35.80;19.70;;;;;;5046742;28;20745;-49
2021/06/02 13:23:21;;;;;;;5.40;5.20;;;36.30;21.10;;;;;;5050085;28;20531;-51
2021/06/02 13:26:08;;;;;;;6.30;5.70;;;36.90;19.90;;;;;;5052036;28;20943;-49
2021/06/02 13:28:43;;;;;;;5.57;5.27;;;34.80;19.80;;;;;;5051553;28;20531;-48